Grey Fox — V7LD4 — position and weather

sailwx.info

Track history (hours):
 
Tides and Currents Weather Stations Pressure Air Temp Water Temp Dewpoint Dewpoint Depression Visibility Wind Speed Wind Dir Waves Ship Positions

Grey Fox

Last reported at 2017-Nov-23 08:55 UTC. Time now 2017-Nov-23 11:07 UTC.
Position N 53°52' E 007°53'.

Length 192.4 m; beam 26.7 m; draft 11.4 m.

Type: Cargo ship. MMSI: 538090261.

Date/timePositionNaut miles runAvg speedWind from/ knotsBaromVisibWave heightAir tempDewpointWater temp
2017-Nov-23 08:55N 53°52' E 007°53'512.0
2017-Nov-23 08:30N 53°51' E 008°02'714.0
2017-Nov-23 08:00N 53°46' E 008°10'815.7
2017-Nov-23 07:30N 53°42' E 008°21'815.8
2017-Nov-23 07:00N 53°36' E 008°30'510.3
2017-Nov-23 06:30N 53°31' E 008°33'611.7
2017-Nov-23 06:00N 53°26' E 008°30'612.3
2017-Nov-23 05:31N 53°20' E 008°29'612.7
2017-Nov-23 05:00N 53°13' E 008°30'5 9.4
2017-Nov-23 04:30N 53°10' E 008°36'4 8.2
2017-Nov-23 04:00N 53°07' E 008°41'3 5.6
2017-Nov-23 03:31N 53°06' E 008°45'0 0.0
2017-Nov-23 03:00N 53°06' E 008°45'0 0.0
2017-Nov-23 02:30N 53°06' E 008°45'0 0.0
2017-Nov-23 02:00N 53°06' E 008°45'0 0.0
2017-Nov-23 01:30N 53°06' E 008°45'0 0.0
2017-Nov-23 01:00N 53°06' E 008°45'0 0.0
2017-Nov-23 00:30N 53°06' E 008°45'0 0.0
2017-Nov-23 00:00N 53°06' E 008°45'0 0.0
2017-Nov-22 23:30N 53°06' E 008°45'0 0.0
2017-Nov-22 23:00N 53°06' E 008°45'0 0.0
2017-Nov-22 22:30N 53°06' E 008°45'0 0.0
2017-Nov-22 22:00N 53°06' E 008°45'0 0.0
2017-Nov-22 21:30N 53°06' E 008°45'0 0.0
2017-Nov-22 21:00N 53°06' E 008°45'0 0.0
2017-Nov-22 20:30N 53°06' E 008°45'0 0.0
2017-Nov-22 20:00N 53°06' E 008°45'0 0.0
2017-Nov-22 19:30N 53°06' E 008°45'  
2017-Nov-19 09:04N 53°26' E 004°51'1 5.5
2017-Nov-19 08:54N 53°25' E 004°51'4 9.3
2017-Nov-19 08:30N 53°25' E 004°45'6 8.3
2017-Nov-19 07:43N 53°20' E 004°40'2 9.7
2017-Nov-19 07:30N 53°18' E 004°38'5 9.5
2017-Nov-19 07:00N 53°13' E 004°35'510.1
2017-Nov-19 06:30N 53°09' E 004°30'510.9
2017-Nov-19 06:00N 53°05' E 004°26'510.8
2017-Nov-19 05:31N 52°60' E 004°21'612.1
2017-Nov-19 05:00N 52°54' E 004°17'612.3
2017-Nov-19 04:30N 52°49' E 004°12'612.4
2017-Nov-19 04:01N 52°44' E 004°05'713.3
2017-Nov-19 03:30N 52°40' E 003°57'713.7
2017-Nov-19 03:00N 52°35' E 003°49'714.0
2017-Nov-19 02:30N 52°30' E 003°41'713.8
2017-Nov-19 02:00N 52°25' E 003°34'713.3
2017-Nov-19 01:27N 52°18' E 003°30'612.9
2017-Nov-19 01:00N 52°12' E 003°29'712.6
2017-Nov-19 00:28N 52°05' E 003°28'612.1
2017-Nov-18 23:59N 51°60' E 003°24'811.7
2017-Nov-18 23:16N 51°52' E 003°21'511.6
2017-Nov-18 22:52N 51°48' E 003°17'411.3
2017-Nov-18 22:30N 51°44' E 003°14'5 9.2
2017-Nov-18 22:00N 51°40' E 003°12'511.0
2017-Nov-18 21:30N 51°34' E 003°10'611.3
2017-Nov-18 21:00N 51°30' E 003°04'510.6
2017-Nov-18 20:30N 51°25' E 003°00'713.3
2017-Nov-18 20:01N 51°24' E 003°10'714.0
2017-Nov-18 19:31N 51°24' E 003°22'714.6
2017-Nov-18 19:01N 51°25' E 003°33'4 8.3
2017-Nov-18 18:30N 51°26' E 003°40'713.3
2017-Nov-18 18:00N 51°21' E 003°47'713.9
2017-Nov-18 17:30N 51°24' E 003°57'4 7.3
2017-Nov-18 17:01N 51°23' E 004°03'612.7
2017-Nov-18 16:31N 51°23' E 004°13'4 7.6
2017-Nov-18 16:00N 51°21' E 004°17'0 0.0
2017-Nov-18 15:29N 51°21' E 004°17'0 0.2
2017-Nov-18 14:58N 51°21' E 004°17'0 0.8
2017-Nov-18 14:27N 51°21' E 004°18'1 1.5
2017-Nov-18 14:00N 51°20' E 004°18'3 6.5
2017-Nov-18 13:30N 51°17' E 004°20'1 2.8
2017-Nov-18 13:00N 51°17' E 004°22'0 0.0
2017-Nov-18 12:30N 51°17' E 004°22'0 0.0
2017-Nov-18 12:00N 51°17' E 004°22'0 0.0
2017-Nov-18 11:30N 51°17' E 004°22'0 0.0
2017-Nov-18 11:00N 51°17' E 004°22'0 0.0
2017-Nov-18 10:30N 51°17' E 004°22'0 0.0
2017-Nov-18 10:00N 51°17' E 004°22'0 0.0
2017-Nov-18 09:30N 51°17' E 004°22'0 0.0
2017-Nov-18 09:00N 51°17' E 004°22'0 0.0
2017-Nov-18 08:30N 51°17' E 004°22'0 0.0
2017-Nov-18 08:00N 51°17' E 004°22'0 0.0
2017-Nov-18 07:30N 51°17' E 004°22'0 0.0
2017-Nov-18 07:00N 51°17' E 004°22'0 0.0
2017-Nov-18 06:29N 51°17' E 004°22'0 0.0
2017-Nov-18 06:00N 51°17' E 004°22'0 0.0
2017-Nov-18 05:30N 51°17' E 004°22'0 0.0
2017-Nov-18 04:59N 51°17' E 004°22'0 0.0
2017-Nov-18 04:29N 51°17' E 004°22'0 0.0
2017-Nov-18 03:59N 51°17' E 004°22'0 0.0
2017-Nov-18 03:29N 51°17' E 004°22'0 0.0
2017-Nov-18 02:59N 51°17' E 004°22'0 0.0
2017-Nov-18 02:29N 51°17' E 004°22'0 0.0
2017-Nov-18 01:59N 51°17' E 004°22'0 0.0
2017-Nov-18 01:29N 51°17' E 004°22'0 0.0
2017-Nov-18 00:58N 51°17' E 004°22'0 0.0
2017-Nov-18 00:28N 51°17' E 004°22'0 0.0
2017-Nov-17 23:58N 51°17' E 004°22'0 0.0
2017-Nov-17 23:28N 51°17' E 004°22'0 0.0
2017-Nov-17 22:58N 51°17' E 004°22'0 0.0
2017-Nov-17 22:28N 51°17' E 004°22'0 0.0
2017-Nov-17 21:58N 51°17' E 004°22'0 0.0
2017-Nov-17 21:28N 51°17' E 004°22'0 0.0
2017-Nov-17 20:58N 51°17' E 004°22'0 0.0
2017-Nov-17 20:28N 51°17' E 004°22'0 0.0
2017-Nov-17 19:58N 51°17' E 004°22'0 0.0
2017-Nov-17 19:28N 51°17' E 004°22'0 0.0
2017-Nov-17 18:58N 51°17' E 004°22'0 0.0
2017-Nov-17 18:28N 51°17' E 004°22'0 0.0
2017-Nov-17 17:58N 51°17' E 004°22'0 0.0
2017-Nov-17 17:31N 51°17' E 004°22'0 0.0
2017-Nov-17 17:01N 51°17' E 004°22'0 0.0
2017-Nov-17 16:28N 51°17' E 004°22'0 0.0
2017-Nov-17 16:01N 51°17' E 004°22'0 0.0
2017-Nov-17 15:30N 51°17' E 004°22'0 0.0
2017-Nov-17 15:00N 51°17' E 004°22'0 0.0
2017-Nov-17 14:30N 51°17' E 004°22'0 0.0
2017-Nov-17 14:00N 51°17' E 004°23'0 0.0
2017-Nov-17 13:30N 51°17' E 004°22'0 0.0
2017-Nov-17 13:00N 51°17' E 004°22'0 0.0
2017-Nov-17 12:30N 51°17' E 004°22'0 0.0
2017-Nov-17 12:00N 51°17' E 004°22'0 0.0
2017-Nov-17 11:30N 51°17' E 004°22'0 0.0
2017-Nov-17 11:00N 51°17' E 004°22'0 0.0
2017-Nov-17 10:30N 51°17' E 004°22'0 0.0
2017-Nov-17 10:00N 51°17' E 004°22'0 0.0
2017-Nov-17 09:30N 51°17' E 004°22'0 0.0
2017-Nov-17 09:00N 51°17' E 004°22'0 0.0
2017-Nov-17 08:30N 51°17' E 004°22'0 0.0
2017-Nov-17 08:00N 51°17' E 004°22'0 0.0
2017-Nov-17 07:30N 51°17' E 004°22'0 0.0
2017-Nov-17 07:00N 51°17' E 004°22'0 0.0
2017-Nov-17 06:30N 51°17' E 004°22'0 0.0
2017-Nov-17 06:00N 51°17' E 004°22'0 0.0
2017-Nov-17 05:30N 51°17' E 004°22'0 0.0
2017-Nov-17 05:00N 51°17' E 004°22'0 0.0
2017-Nov-17 04:30N 51°17' E 004°22'0 0.0
2017-Nov-17 04:00N 51°17' E 004°22'0 0.0
2017-Nov-17 03:30N 51°17' E 004°22'0 0.0
2017-Nov-17 03:00N 51°17' E 004°22'0 0.0
2017-Nov-17 02:30N 51°17' E 004°22'0 0.0
2017-Nov-17 01:57N 51°17' E 004°22'0 0.0
2017-Nov-17 01:30N 51°17' E 004°22'0 0.0
2017-Nov-17 01:00N 51°17' E 004°22'0 0.0
2017-Nov-17 00:30N 51°17' E 004°22'0 0.0
2017-Nov-17 00:00N 51°17' E 004°22'0 0.0
2017-Nov-16 23:30N 51°17' E 004°22'0 0.0
2017-Nov-16 22:59N 51°17' E 004°22'0 0.0
2017-Nov-16 22:29N 51°17' E 004°22'0 0.0
2017-Nov-16 21:59N 51°17' E 004°22'0 0.0
2017-Nov-16 21:29N 51°17' E 004°22'0 0.0
2017-Nov-16 20:59N 51°17' E 004°22'0 0.0
2017-Nov-16 20:29N 51°17' E 004°22'0 0.0
2017-Nov-16 19:59N 51°17' E 004°22'0 0.0
2017-Nov-16 19:29N 51°17' E 004°22'0 0.0
2017-Nov-16 18:59N 51°17' E 004°22'0 0.0
2017-Nov-16 18:29N 51°17' E 004°22'0 0.0
2017-Nov-16 17:59N 51°17' E 004°22'0 0.0
2017-Nov-16 17:29N 51°17' E 004°22'0 0.0
2017-Nov-16 16:59N 51°17' E 004°22'0 0.0
2017-Nov-16 16:29N 51°17' E 004°22'0 0.0
2017-Nov-16 15:59N 51°17' E 004°22'0 0.0
2017-Nov-16 15:29N 51°17' E 004°22'0 0.0
2017-Nov-16 14:59N 51°17' E 004°22'0 0.0
2017-Nov-16 14:29N 51°17' E 004°22'0 0.0
2017-Nov-16 13:59N 51°17' E 004°22'0 0.0
2017-Nov-16 13:29N 51°17' E 004°22'0 0.0
2017-Nov-16 12:59N 51°17' E 004°22'0 0.0
2017-Nov-16 12:29N 51°17' E 004°22'0 0.0
2017-Nov-16 11:59N 51°17' E 004°22'0 0.0
2017-Nov-16 11:29N 51°17' E 004°22'0 0.0
2017-Nov-16 10:59N 51°17' E 004°22'0 0.0
2017-Nov-16 10:29N 51°17' E 004°22'0 0.0
2017-Nov-16 09:59N 51°17' E 004°22'0 0.0
2017-Nov-16 09:29N 51°17' E 004°22'0 0.0
2017-Nov-16 08:59N 51°17' E 004°22'0 0.4
2017-Nov-16 08:30N 51°17' E 004°22'2 3.5
2017-Nov-16 08:00N 51°18' E 004°20'3 6.6
2017-Nov-16 07:30N 51°21' E 004°17'0 0.2
2017-Nov-16 07:00N 51°21' E 004°17'0 0.0
2017-Nov-16 06:30N 51°21' E 004°17'0 0.0
2017-Nov-16 06:01N 51°21' E 004°17'0 0.6
2017-Nov-16 05:30N 51°21' E 004°17'2 3.1
2017-Nov-16 05:00N 51°21' E 004°14'3 6.6
2017-Nov-16 04:30N 51°23' E 004°10'5 9.6
2017-Nov-16 04:00N 51°23' E 004°03'4 7.8
2017-Nov-16 03:30N 51°25' E 003°58'611.3
2017-Nov-16 03:00N 51°21' E 003°53'611.3
2017-Nov-16 02:30N 51°22' E 003°44'510.3
2017-Nov-16 02:00N 51°26' E 003°38'3 6.1
2017-Nov-16 01:30N 51°27' E 003°34'4 7.1
2017-Nov-16 01:00N 51°29' E 003°30'4 7.6
2017-Nov-16 00:30N 51°32' E 003°25'4 7.0
2017-Nov-16 00:00N 51°35' E 003°23'4 7.8
2017-Nov-15 23:29N 51°39' E 003°20'510.4
2017-Nov-15 23:00N 51°43' E 003°16'4 8.3
2017-Nov-15 22:28N 51°47' E 003°15'4 5.5
2017-Nov-15 21:48N 51°51' E 003°17'1311.3
2017-Nov-15 20:41N 52°02' E 003°26'514.5
2017-Nov-15 20:21N 52°03' E 003°34'514.8
2017-Nov-15 20:01N 52°02' E 003°42'713.9
2017-Nov-15 19:30N 52°02' E 003°53'612.0
2017-Nov-15 19:00N 51°60' E 004°02'611.4
2017-Nov-15 18:30N 51°57' E 004°10'611.1
2017-Nov-15 18:00N 51°54' E 004°18'4 7.9
2017-Nov-15 17:30N 51°53' E 004°24'1 1.6
2017-Nov-15 16:58N 51°53' E 004°25'0 0.0
2017-Nov-15 16:28N 51°53' E 004°25'0 0.0
2017-Nov-15 15:58N 51°53' E 004°25'0 0.0
2017-Nov-15 15:28N 51°53' E 004°25'0 0.0
2017-Nov-15 14:58N 51°53' E 004°25'0 0.0
2017-Nov-15 14:28N 51°53' E 004°25'0 0.0
2017-Nov-15 13:58N 51°53' E 004°25'0 0.0
2017-Nov-15 13:28N 51°53' E 004°25'0 0.0
2017-Nov-15 12:58N 51°53' E 004°25'0 0.0
2017-Nov-15 12:30N 51°53' E 004°25'0 0.0
2017-Nov-15 12:00N 51°53' E 004°25'0 0.0
2017-Nov-15 11:30N 51°53' E 004°25'0 0.0
2017-Nov-15 11:00N 51°53' E 004°25'0 0.0
2017-Nov-15 10:30N 51°53' E 004°25'0 0.0
2017-Nov-15 10:00N 51°53' E 004°25'0 0.0
2017-Nov-15 09:30N 51°53' E 004°25'0 0.0
2017-Nov-15 09:00N 51°53' E 004°25'0 0.0
2017-Nov-15 08:30N 51°53' E 004°25'0 0.0
2017-Nov-15 08:00N 51°53' E 004°25'0 0.0
2017-Nov-15 07:30N 51°53' E 004°25'0 0.0
2017-Nov-15 07:00N 51°53' E 004°25'0 0.0
2017-Nov-15 06:30N 51°53' E 004°25'0 0.0
2017-Nov-15 06:00N 51°53' E 004°25'0 0.0
2017-Nov-15 05:30N 51°53' E 004°25'0 0.0
2017-Nov-15 05:00N 51°53' E 004°25'0 0.0
2017-Nov-15 04:30N 51°53' E 004°25'0 0.0
2017-Nov-15 04:00N 51°53' E 004°25'0 0.0
2017-Nov-15 03:30N 51°53' E 004°25'0 0.0
2017-Nov-15 03:00N 51°53' E 004°25'0 0.0
2017-Nov-15 02:30N 51°53' E 004°25'0 0.0
2017-Nov-15 02:00N 51°53' E 004°25'0 0.0
2017-Nov-15 01:30N 51°53' E 004°25'0 0.0
2017-Nov-15 01:00N 51°53' E 004°25'0 0.0
2017-Nov-15 00:30N 51°53' E 004°25'0 0.0
2017-Nov-15 00:00N 51°53' E 004°25'0 0.0
2017-Nov-14 23:29N 51°53' E 004°25'0 0.0
2017-Nov-14 22:59N 51°53' E 004°25'0 0.0
2017-Nov-14 22:29N 51°53' E 004°25'0 0.0
2017-Nov-14 21:59N 51°53' E 004°25'0 0.0
2017-Nov-14 21:29N 51°53' E 004°25'0 0.0
2017-Nov-14 20:59N 51°53' E 004°25'0 0.0
2017-Nov-14 20:29N 51°53' E 004°25'0 0.0
2017-Nov-14 19:59N 51°53' E 004°25'0 0.0
2017-Nov-14 19:29N 51°53' E 004°25'0 0.0
2017-Nov-14 18:59N 51°53' E 004°25'0 0.0
2017-Nov-14 18:29N 51°53' E 004°25'0 0.0
2017-Nov-14 17:59N 51°53' E 004°25'0 0.0
2017-Nov-14 17:29N 51°53' E 004°25'0 0.0
2017-Nov-14 16:59N 51°53' E 004°25'0 0.0
2017-Nov-14 16:29N 51°53' E 004°25'0 0.0
2017-Nov-14 15:59N 51°53' E 004°25'0 0.0
2017-Nov-14 15:29N 51°53' E 004°25'0 0.0
2017-Nov-14 14:59N 51°53' E 004°25'0 0.0
2017-Nov-14 14:29N 51°53' E 004°25'0 0.0
2017-Nov-14 13:59N 51°53' E 004°25'0 0.0
2017-Nov-14 13:28N 51°53' E 004°25'0 0.0
2017-Nov-14 12:58N 51°53' E 004°25'0 0.0
2017-Nov-14 12:28N 51°53' E 004°25'0 0.0
2017-Nov-14 11:58N 51°53' E 004°25'0 0.0
2017-Nov-14 11:28N 51°53' E 004°25'0 0.0
2017-Nov-14 10:58N 51°53' E 004°25'0 0.0
2017-Nov-14 10:28N 51°53' E 004°25'0 0.0
2017-Nov-14 09:58N 51°53' E 004°25'0 0.0
2017-Nov-14 09:28N 51°53' E 004°25'0 0.0
2017-Nov-14 08:58N 51°53' E 004°25'0 0.0
2017-Nov-14 08:28N 51°53' E 004°25'0 0.0
2017-Nov-14 07:58N 51°53' E 004°25'0 0.0
2017-Nov-14 07:28N 51°53' E 004°25'0 0.0
2017-Nov-14 06:58N 51°53' E 004°25'0 0.0
2017-Nov-14 06:28N 51°53' E 004°25'0 0.0
2017-Nov-14 05:58N 51°53' E 004°25'0 0.0
2017-Nov-14 05:28N 51°53' E 004°25'0 0.0
2017-Nov-14 04:58N 51°53' E 004°25'0 0.0
2017-Nov-14 04:28N 51°53' E 004°25'0 0.0
2017-Nov-14 03:58N 51°53' E 004°25'0 0.0
2017-Nov-14 03:28N 51°53' E 004°25'0 0.0
2017-Nov-14 02:58N 51°53' E 004°25'0 0.0
2017-Nov-14 02:28N 51°53' E 004°25'0 0.0
2017-Nov-14 01:58N 51°53' E 004°25'0 0.0
2017-Nov-14 01:28N 51°53' E 004°25'0 0.0
2017-Nov-14 00:58N 51°53' E 004°25'0 0.0
2017-Nov-14 00:28N 51°53' E 004°25'0 0.0
2017-Nov-13 23:58N 51°53' E 004°25'0 0.0
2017-Nov-13 23:28N 51°53' E 004°25'0 0.0
2017-Nov-13 22:58N 51°53' E 004°25'0 0.0
2017-Nov-13 22:28N 51°53' E 004°25'0 0.0
2017-Nov-13 21:58N 51°53' E 004°25'  
Track history (hours):
 
Tides and Currents Weather Stations Pressure Air Temp Water Temp Dewpoint Dewpoint Depression Visibility Wind Speed Wind Dir Waves Ship Positions

Grey Fox

Last reported at 2017-Nov-23 08:55 UTC. Time now 2017-Nov-23 11:07 UTC.
Position N 53°52' E 007°53'.

Length 192.4 m; beam 26.7 m; draft 11.4 m.

Type: Cargo ship. MMSI: 538090261.

Date/timePositionNaut miles runAvg speedWind from/ knotsBaromVisibWave heightAir tempDewpointWater temp
2017-Nov-23 08:55N 53°52' E 007°53'512.0
2017-Nov-23 08:30N 53°51' E 008°02'714.0
2017-Nov-23 08:00N 53°46' E 008°10'815.7
2017-Nov-23 07:30N 53°42' E 008°21'815.8
2017-Nov-23 07:00N 53°36' E 008°30'510.3
2017-Nov-23 06:30N 53°31' E 008°33'611.7
2017-Nov-23 06:00N 53°26' E 008°30'612.3
2017-Nov-23 05:31N 53°20' E 008°29'612.7
2017-Nov-23 05:00N 53°13' E 008°30'5 9.4
2017-Nov-23 04:30N 53°10' E 008°36'4 8.2
2017-Nov-23 04:00N 53°07' E 008°41'3 5.6
2017-Nov-23 03:31N 53°06' E 008°45'0 0.0
2017-Nov-23 03:00N 53°06' E 008°45'0 0.0
2017-Nov-23 02:30N 53°06' E 008°45'0 0.0
2017-Nov-23 02:00N 53°06' E 008°45'0 0.0
2017-Nov-23 01:30N 53°06' E 008°45'0 0.0
2017-Nov-23 01:00N 53°06' E 008°45'0 0.0
2017-Nov-23 00:30N 53°06' E 008°45'0 0.0
2017-Nov-23 00:00N 53°06' E 008°45'0 0.0
2017-Nov-22 23:30N 53°06' E 008°45'0 0.0
2017-Nov-22 23:00N 53°06' E 008°45'0 0.0
2017-Nov-22 22:30N 53°06' E 008°45'0 0.0
2017-Nov-22 22:00N 53°06' E 008°45'0 0.0
2017-Nov-22 21:30N 53°06' E 008°45'0 0.0
2017-Nov-22 21:00N 53°06' E 008°45'0 0.0
2017-Nov-22 20:30N 53°06' E 008°45'0 0.0
2017-Nov-22 20:00N 53°06' E 008°45'0 0.0
2017-Nov-22 19:30N 53°06' E 008°45'  
2017-Nov-19 09:04N 53°26' E 004°51'1 5.5
2017-Nov-19 08:54N 53°25' E 004°51'4 9.3
2017-Nov-19 08:30N 53°25' E 004°45'6 8.3
2017-Nov-19 07:43N 53°20' E 004°40'2 9.7
2017-Nov-19 07:30N 53°18' E 004°38'5 9.5
2017-Nov-19 07:00N 53°13' E 004°35'510.1
2017-Nov-19 06:30N 53°09' E 004°30'510.9
2017-Nov-19 06:00N 53°05' E 004°26'510.8
2017-Nov-19 05:31N 52°60' E 004°21'612.1
2017-Nov-19 05:00N 52°54' E 004°17'612.3
2017-Nov-19 04:30N 52°49' E 004°12'612.4
2017-Nov-19 04:01N 52°44' E 004°05'713.3
2017-Nov-19 03:30N 52°40' E 003°57'713.7
2017-Nov-19 03:00N 52°35' E 003°49'714.0
2017-Nov-19 02:30N 52°30' E 003°41'713.8
2017-Nov-19 02:00N 52°25' E 003°34'713.3
2017-Nov-19 01:27N 52°18' E 003°30'612.9
2017-Nov-19 01:00N 52°12' E 003°29'712.6
2017-Nov-19 00:28N 52°05' E 003°28'612.1
2017-Nov-18 23:59N 51°60' E 003°24'811.7
2017-Nov-18 23:16N 51°52' E 003°21'511.6
2017-Nov-18 22:52N 51°48' E 003°17'411.3
2017-Nov-18 22:30N 51°44' E 003°14'5 9.2
2017-Nov-18 22:00N 51°40' E 003°12'511.0
2017-Nov-18 21:30N 51°34' E 003°10'611.3
2017-Nov-18 21:00N 51°30' E 003°04'510.6
2017-Nov-18 20:30N 51°25' E 003°00'713.3
2017-Nov-18 20:01N 51°24' E 003°10'714.0
2017-Nov-18 19:31N 51°24' E 003°22'714.6
2017-Nov-18 19:01N 51°25' E 003°33'4 8.3
2017-Nov-18 18:30N 51°26' E 003°40'713.3
2017-Nov-18 18:00N 51°21' E 003°47'713.9
2017-Nov-18 17:30N 51°24' E 003°57'4 7.3
2017-Nov-18 17:01N 51°23' E 004°03'612.7
2017-Nov-18 16:31N 51°23' E 004°13'4 7.6
2017-Nov-18 16:00N 51°21' E 004°17'0 0.0
2017-Nov-18 15:29N 51°21' E 004°17'0 0.2
2017-Nov-18 14:58N 51°21' E 004°17'0 0.8
2017-Nov-18 14:27N 51°21' E 004°18'1 1.5
2017-Nov-18 14:00N 51°20' E 004°18'3 6.5
2017-Nov-18 13:30N 51°17' E 004°20'1 2.8
2017-Nov-18 13:00N 51°17' E 004°22'0 0.0
2017-Nov-18 12:30N 51°17' E 004°22'0 0.0
2017-Nov-18 12:00N 51°17' E 004°22'0 0.0
2017-Nov-18 11:30N 51°17' E 004°22'0 0.0
2017-Nov-18 11:00N 51°17' E 004°22'0 0.0
2017-Nov-18 10:30N 51°17' E 004°22'0 0.0
2017-Nov-18 10:00N 51°17' E 004°22'0 0.0
2017-Nov-18 09:30N 51°17' E 004°22'0 0.0
2017-Nov-18 09:00N 51°17' E 004°22'0 0.0
2017-Nov-18 08:30N 51°17' E 004°22'0 0.0
2017-Nov-18 08:00N 51°17' E 004°22'0 0.0
2017-Nov-18 07:30N 51°17' E 004°22'0 0.0
2017-Nov-18 07:00N 51°17' E 004°22'0 0.0
2017-Nov-18 06:29N 51°17' E 004°22'0 0.0
2017-Nov-18 06:00N 51°17' E 004°22'0 0.0
2017-Nov-18 05:30N 51°17' E 004°22'0 0.0
2017-Nov-18 04:59N 51°17' E 004°22'0 0.0
2017-Nov-18 04:29N 51°17' E 004°22'0 0.0
2017-Nov-18 03:59N 51°17' E 004°22'0 0.0
2017-Nov-18 03:29N 51°17' E 004°22'0 0.0
2017-Nov-18 02:59N 51°17' E 004°22'0 0.0
2017-Nov-18 02:29N 51°17' E 004°22'0 0.0
2017-Nov-18 01:59N 51°17' E 004°22'0 0.0
2017-Nov-18 01:29N 51°17' E 004°22'0 0.0
2017-Nov-18 00:58N 51°17' E 004°22'0 0.0
2017-Nov-18 00:28N 51°17' E 004°22'0 0.0
2017-Nov-17 23:58N 51°17' E 004°22'0 0.0
2017-Nov-17 23:28N 51°17' E 004°22'0 0.0
2017-Nov-17 22:58N 51°17' E 004°22'0 0.0
2017-Nov-17 22:28N 51°17' E 004°22'0 0.0
2017-Nov-17 21:58N 51°17' E 004°22'0 0.0
2017-Nov-17 21:28N 51°17' E 004°22'0 0.0
2017-Nov-17 20:58N 51°17' E 004°22'0 0.0
2017-Nov-17 20:28N 51°17' E 004°22'0 0.0
2017-Nov-17 19:58N 51°17' E 004°22'0 0.0
2017-Nov-17 19:28N 51°17' E 004°22'0 0.0
2017-Nov-17 18:58N 51°17' E 004°22'0 0.0
2017-Nov-17 18:28N 51°17' E 004°22'0 0.0
2017-Nov-17 17:58N 51°17' E 004°22'0 0.0
2017-Nov-17 17:31N 51°17' E 004°22'0 0.0
2017-Nov-17 17:01N 51°17' E 004°22'0 0.0
2017-Nov-17 16:28N 51°17' E 004°22'0 0.0
2017-Nov-17 16:01N 51°17' E 004°22'0 0.0
2017-Nov-17 15:30N 51°17' E 004°22'0 0.0
2017-Nov-17 15:00N 51°17' E 004°22'0 0.0
2017-Nov-17 14:30N 51°17' E 004°22'0 0.0
2017-Nov-17 14:00N 51°17' E 004°23'0 0.0
2017-Nov-17 13:30N 51°17' E 004°22'0 0.0
2017-Nov-17 13:00N 51°17' E 004°22'0 0.0
2017-Nov-17 12:30N 51°17' E 004°22'0 0.0
2017-Nov-17 12:00N 51°17' E 004°22'0 0.0
2017-Nov-17 11:30N 51°17' E 004°22'0 0.0
2017-Nov-17 11:00N 51°17' E 004°22'0 0.0
2017-Nov-17 10:30N 51°17' E 004°22'0 0.0
2017-Nov-17 10:00N 51°17' E 004°22'0 0.0
2017-Nov-17 09:30N 51°17' E 004°22'0 0.0
2017-Nov-17 09:00N 51°17' E 004°22'0 0.0
2017-Nov-17 08:30N 51°17' E 004°22'0 0.0
2017-Nov-17 08:00N 51°17' E 004°22'0 0.0
2017-Nov-17 07:30N 51°17' E 004°22'0 0.0
2017-Nov-17 07:00N 51°17' E 004°22'0 0.0
2017-Nov-17 06:30N 51°17' E 004°22'0 0.0
2017-Nov-17 06:00N 51°17' E 004°22'0 0.0
2017-Nov-17 05:30N 51°17' E 004°22'0 0.0
2017-Nov-17 05:00N 51°17' E 004°22'0 0.0
2017-Nov-17 04:30N 51°17' E 004°22'0 0.0
2017-Nov-17 04:00N 51°17' E 004°22'0 0.0
2017-Nov-17 03:30N 51°17' E 004°22'0 0.0
2017-Nov-17 03:00N 51°17' E 004°22'0 0.0
2017-Nov-17 02:30N 51°17' E 004°22'0 0.0
2017-Nov-17 01:57N 51°17' E 004°22'0 0.0
2017-Nov-17 01:30N 51°17' E 004°22'0 0.0
2017-Nov-17 01:00N 51°17' E 004°22'0 0.0
2017-Nov-17 00:30N 51°17' E 004°22'0 0.0
2017-Nov-17 00:00N 51°17' E 004°22'0 0.0
2017-Nov-16 23:30N 51°17' E 004°22'0 0.0
2017-Nov-16 22:59N 51°17' E 004°22'0 0.0
2017-Nov-16 22:29N 51°17' E 004°22'0 0.0
2017-Nov-16 21:59N 51°17' E 004°22'0 0.0
2017-Nov-16 21:29N 51°17' E 004°22'0 0.0
2017-Nov-16 20:59N 51°17' E 004°22'0 0.0
2017-Nov-16 20:29N 51°17' E 004°22'0 0.0
2017-Nov-16 19:59N 51°17' E 004°22'0 0.0
2017-Nov-16 19:29N 51°17' E 004°22'0 0.0
2017-Nov-16 18:59N 51°17' E 004°22'0 0.0
2017-Nov-16 18:29N 51°17' E 004°22'0 0.0
2017-Nov-16 17:59N 51°17' E 004°22'0 0.0
2017-Nov-16 17:29N 51°17' E 004°22'0 0.0
2017-Nov-16 16:59N 51°17' E 004°22'0 0.0
2017-Nov-16 16:29N 51°17' E 004°22'0 0.0
2017-Nov-16 15:59N 51°17' E 004°22'0 0.0
2017-Nov-16 15:29N 51°17' E 004°22'0 0.0
2017-Nov-16 14:59N 51°17' E 004°22'0 0.0
2017-Nov-16 14:29N 51°17' E 004°22'0 0.0
2017-Nov-16 13:59N 51°17' E 004°22'0 0.0
2017-Nov-16 13:29N 51°17' E 004°22'0 0.0
2017-Nov-16 12:59N 51°17' E 004°22'0 0.0
2017-Nov-16 12:29N 51°17' E 004°22'0 0.0
2017-Nov-16 11:59N 51°17' E 004°22'0 0.0
2017-Nov-16 11:29N 51°17' E 004°22'0 0.0
2017-Nov-16 10:59N 51°17' E 004°22'0 0.0
2017-Nov-16 10:29N 51°17' E 004°22'0 0.0
2017-Nov-16 09:59N 51°17' E 004°22'0 0.0
2017-Nov-16 09:29N 51°17' E 004°22'0 0.0
2017-Nov-16 08:59N 51°17' E 004°22'0 0.4
2017-Nov-16 08:30N 51°17' E 004°22'2 3.5
2017-Nov-16 08:00N 51°18' E 004°20'3 6.6
2017-Nov-16 07:30N 51°21' E 004°17'0 0.2
2017-Nov-16 07:00N 51°21' E 004°17'0 0.0
2017-Nov-16 06:30N 51°21' E 004°17'0 0.0
2017-Nov-16 06:01N 51°21' E 004°17'0 0.6
2017-Nov-16 05:30N 51°21' E 004°17'2 3.1
2017-Nov-16 05:00N 51°21' E 004°14'3 6.6
2017-Nov-16 04:30N 51°23' E 004°10'5 9.6
2017-Nov-16 04:00N 51°23' E 004°03'4 7.8
2017-Nov-16 03:30N 51°25' E 003°58'611.3
2017-Nov-16 03:00N 51°21' E 003°53'611.3
2017-Nov-16 02:30N 51°22' E 003°44'510.3
2017-Nov-16 02:00N 51°26' E 003°38'3 6.1
2017-Nov-16 01:30N 51°27' E 003°34'4 7.1
2017-Nov-16 01:00N 51°29' E 003°30'4 7.6
2017-Nov-16 00:30N 51°32' E 003°25'4 7.0
2017-Nov-16 00:00N 51°35' E 003°23'4 7.8
2017-Nov-15 23:29N 51°39' E 003°20'510.4
2017-Nov-15 23:00N 51°43' E 003°16'4 8.3
2017-Nov-15 22:28N 51°47' E 003°15'4 5.5
2017-Nov-15 21:48N 51°51' E 003°17'1311.3
2017-Nov-15 20:41N 52°02' E 003°26'514.5
2017-Nov-15 20:21N 52°03' E 003°34'514.8
2017-Nov-15 20:01N 52°02' E 003°42'713.9
2017-Nov-15 19:30N 52°02' E 003°53'612.0
2017-Nov-15 19:00N 51°60' E 004°02'611.4
2017-Nov-15 18:30N 51°57' E 004°10'611.1
2017-Nov-15 18:00N 51°54' E 004°18'4 7.9
2017-Nov-15 17:30N 51°53' E 004°24'1 1.6
2017-Nov-15 16:58N 51°53' E 004°25'0 0.0
2017-Nov-15 16:28N 51°53' E 004°25'0 0.0
2017-Nov-15 15:58N 51°53' E 004°25'0 0.0
2017-Nov-15 15:28N 51°53' E 004°25'0 0.0
2017-Nov-15 14:58N 51°53' E 004°25'0 0.0
2017-Nov-15 14:28N 51°53' E 004°25'0 0.0
2017-Nov-15 13:58N 51°53' E 004°25'0 0.0
2017-Nov-15 13:28N 51°53' E 004°25'0 0.0
2017-Nov-15 12:58N 51°53' E 004°25'0 0.0
2017-Nov-15 12:30N 51°53' E 004°25'0 0.0
2017-Nov-15 12:00N 51°53' E 004°25'0 0.0
2017-Nov-15 11:30N 51°53' E 004°25'0 0.0
2017-Nov-15 11:00N 51°53' E 004°25'0 0.0
2017-Nov-15 10:30N 51°53' E 004°25'0 0.0
2017-Nov-15 10:00N 51°53' E 004°25'0 0.0
2017-Nov-15 09:30N 51°53' E 004°25'0 0.0
2017-Nov-15 09:00N 51°53' E 004°25'0 0.0
2017-Nov-15 08:30N 51°53' E 004°25'0 0.0
2017-Nov-15 08:00N 51°53' E 004°25'0 0.0
2017-Nov-15 07:30N 51°53' E 004°25'0 0.0
2017-Nov-15 07:00N 51°53' E 004°25'0 0.0
2017-Nov-15 06:30N 51°53' E 004°25'0 0.0
2017-Nov-15 06:00N 51°53' E 004°25'0 0.0
2017-Nov-15 05:30N 51°53' E 004°25'0 0.0
2017-Nov-15 05:00N 51°53' E 004°25'0 0.0
2017-Nov-15 04:30N 51°53' E 004°25'0 0.0
2017-Nov-15 04:00N 51°53' E 004°25'0 0.0
2017-Nov-15 03:30N 51°53' E 004°25'0 0.0
2017-Nov-15 03:00N 51°53' E 004°25'0 0.0
2017-Nov-15 02:30N 51°53' E 004°25'0 0.0
2017-Nov-15 02:00N 51°53' E 004°25'0 0.0
2017-Nov-15 01:30N 51°53' E 004°25'0 0.0
2017-Nov-15 01:00N 51°53' E 004°25'0 0.0
2017-Nov-15 00:30N 51°53' E 004°25'0 0.0
2017-Nov-15 00:00N 51°53' E 004°25'0 0.0
2017-Nov-14 23:29N 51°53' E 004°25'0 0.0
2017-Nov-14 22:59N 51°53' E 004°25'0 0.0
2017-Nov-14 22:29N 51°53' E 004°25'0 0.0
2017-Nov-14 21:59N 51°53' E 004°25'0 0.0
2017-Nov-14 21:29N 51°53' E 004°25'0 0.0
2017-Nov-14 20:59N 51°53' E 004°25'0 0.0
2017-Nov-14 20:29N 51°53' E 004°25'0 0.0
2017-Nov-14 19:59N 51°53' E 004°25'0 0.0
2017-Nov-14 19:29N 51°53' E 004°25'0 0.0
2017-Nov-14 18:59N 51°53' E 004°25'0 0.0
2017-Nov-14 18:29N 51°53' E 004°25'0 0.0
2017-Nov-14 17:59N 51°53' E 004°25'0 0.0
2017-Nov-14 17:29N 51°53' E 004°25'0 0.0
2017-Nov-14 16:59N 51°53' E 004°25'0 0.0
2017-Nov-14 16:29N 51°53' E 004°25'0 0.0
2017-Nov-14 15:59N 51°53' E 004°25'0 0.0
2017-Nov-14 15:29N 51°53' E 004°25'0 0.0
2017-Nov-14 14:59N 51°53' E 004°25'0 0.0
2017-Nov-14 14:29N 51°53' E 004°25'0 0.0
2017-Nov-14 13:59N 51°53' E 004°25'0 0.0
2017-Nov-14 13:28N 51°53' E 004°25'0 0.0
2017-Nov-14 12:58N 51°53' E 004°25'0 0.0
2017-Nov-14 12:28N 51°53' E 004°25'0 0.0
2017-Nov-14 11:58N 51°53' E 004°25'0 0.0
2017-Nov-14 11:28N 51°53' E 004°25'0 0.0
2017-Nov-14 10:58N 51°53' E 004°25'0 0.0
2017-Nov-14 10:28N 51°53' E 004°25'0 0.0
2017-Nov-14 09:58N 51°53' E 004°25'0 0.0
2017-Nov-14 09:28N 51°53' E 004°25'0 0.0
2017-Nov-14 08:58N 51°53' E 004°25'0 0.0
2017-Nov-14 08:28N 51°53' E 004°25'0 0.0
2017-Nov-14 07:58N 51°53' E 004°25'0 0.0
2017-Nov-14 07:28N 51°53' E 004°25'0 0.0
2017-Nov-14 06:58N 51°53' E 004°25'0 0.0
2017-Nov-14 06:28N 51°53' E 004°25'0 0.0
2017-Nov-14 05:58N 51°53' E 004°25'0 0.0
2017-Nov-14 05:28N 51°53' E 004°25'0 0.0
2017-Nov-14 04:58N 51°53' E 004°25'0 0.0
2017-Nov-14 04:28N 51°53' E 004°25'0 0.0
2017-Nov-14 03:58N 51°53' E 004°25'0 0.0
2017-Nov-14 03:28N 51°53' E 004°25'0 0.0
2017-Nov-14 02:58N 51°53' E 004°25'0 0.0
2017-Nov-14 02:28N 51°53' E 004°25'0 0.0
2017-Nov-14 01:58N 51°53' E 004°25'0 0.0
2017-Nov-14 01:28N 51°53' E 004°25'0 0.0
2017-Nov-14 00:58N 51°53' E 004°25'0 0.0
2017-Nov-14 00:28N 51°53' E 004°25'0 0.0
2017-Nov-13 23:58N 51°53' E 004°25'0 0.0
2017-Nov-13 23:28N 51°53' E 004°25'0 0.0
2017-Nov-13 22:58N 51°53' E 004°25'0 0.0
2017-Nov-13 22:28N 51°53' E 004°25'0 0.0
2017-Nov-13 21:58N 51°53' E 004°25'  

Dump ship's entire track history